createdAt,value
2022-08-03T00:00:54.057Z,13.84
2022-08-03T00:06:04.197Z,13.83
2022-08-03T00:11:07.969Z,13.83
2022-08-03T00:16:10.972Z,13.83
2022-08-03T00:21:13.558Z,13.82
2022-08-03T00:26:18.563Z,13.80
2022-08-03T00:31:26.490Z,13.80
2022-08-03T00:36:44.000Z,13.80
2022-08-03T00:41:46.687Z,13.79
2022-08-03T00:46:49.394Z,13.75
2022-08-03T00:51:52.618Z,13.71
2022-08-03T00:56:59.546Z,13.71
2022-08-03T01:02:03.381Z,13.69
2022-08-03T01:07:19.224Z,13.66
2022-08-03T01:12:27.670Z,13.62
2022-08-03T01:17:57.573Z,13.58
2022-08-03T01:23:28.945Z,13.51
2022-08-03T01:28:50.324Z,13.48
2022-08-03T01:33:59.512Z,13.50
2022-08-03T01:39:05.110Z,13.48
2022-08-03T01:44:29.665Z,13.42
2022-08-03T01:49:38.712Z,13.38
2022-08-03T01:54:45.418Z,13.31
2022-08-03T01:59:50.618Z,13.25
2022-08-03T02:04:56.834Z,13.20
2022-08-03T02:10:02.833Z,13.19
2022-08-03T02:15:07.498Z,13.18
2022-08-03T02:20:12.890Z,13.16
2022-08-03T02:25:16.365Z,13.13
2022-08-03T02:30:20.722Z,13.10
2022-08-03T02:35:26.483Z,13.09
2022-08-03T02:40:31.494Z,13.10
2022-08-03T02:45:45.119Z,13.16
2022-08-03T02:50:51.509Z,13.29
2022-08-03T02:55:56.869Z,13.39
2022-08-03T03:01:02.039Z,13.45
2022-08-03T03:06:05.874Z,13.50
2022-08-03T03:11:10.518Z,13.59
2022-08-03T03:16:15.558Z,13.68
2022-08-03T03:21:20.169Z,13.72
2022-08-03T03:26:23.014Z,13.80
2022-08-03T03:31:25.835Z,13.91
2022-08-03T03:36:28.614Z,14.02
2022-08-03T03:41:31.623Z,14.16
2022-08-03T03:46:38.901Z,14.31
2022-08-03T03:51:41.677Z,14.42
2022-08-03T03:56:45.227Z,14.51
2022-08-03T04:01:47.948Z,14.62
2022-08-03T04:07:20.516Z,14.78
2022-08-03T04:12:26.511Z,14.95
2022-08-03T04:17:31.126Z,15.09
2022-08-03T04:22:35.065Z,15.20
2022-08-03T04:27:40.698Z,15.32
2022-08-03T04:32:46.017Z,15.49
2022-08-03T04:37:51.860Z,15.61
2022-08-03T04:42:56.324Z,15.68
2022-08-03T04:47:59.903Z,15.77
2022-08-03T04:53:07.180Z,15.90
2022-08-03T04:58:10.527Z,16.02
2022-08-03T05:03:23.935Z,16.17
2022-08-03T05:08:28.407Z,16.35
2022-08-03T05:13:31.353Z,16.55
2022-08-03T05:18:34.334Z,16.72
2022-08-03T05:23:38.050Z,16.98
2022-08-03T05:28:40.914Z,17.40
2022-08-03T05:33:54.755Z,17.80
2022-08-03T05:39:02.467Z,18.21
2022-08-03T05:44:06.096Z,18.69
2022-08-03T05:49:08.864Z,19.15
2022-08-03T05:54:12.210Z,19.69
2022-08-03T05:59:37.103Z,20.15
2022-08-03T06:04:38.147Z,20.60
2022-08-03T06:10:34.957Z,20.86
2022-08-03T06:15:05.306Z,20.99
2022-08-03T06:20:11.622Z,21.20
2022-08-03T06:25:14.598Z,21.53
2022-08-03T06:30:21.073Z,21.84
2022-08-03T06:35:24.604Z,22.05
2022-08-03T06:40:31.472Z,22.22
2022-08-03T06:45:35.472Z,22.48
2022-08-03T06:50:45.257Z,22.77
2022-08-03T06:55:52.425Z,23.11
2022-08-03T07:00:57.198Z,23.34
2022-08-03T07:06:00.124Z,23.51
2022-08-03T07:11:02.921Z,23.51
2022-08-03T07:16:07.106Z,23.46
2022-08-03T07:21:11.063Z,23.47
2022-08-03T07:26:13.905Z,23.73
2022-08-03T07:31:16.806Z,24.00
2022-08-03T07:36:19.722Z,24.39
2022-08-03T07:41:22.445Z,24.76
2022-08-03T07:46:25.292Z,25.07
2022-08-03T07:51:29.868Z,25.49
2022-08-03T07:56:32.681Z,26.16
2022-08-03T08:01:38.053Z,26.79
2022-08-03T08:06:40.894Z,27.21
2022-08-03T08:11:43.603Z,27.47
2022-08-03T08:16:47.889Z,27.49
2022-08-03T08:21:53.754Z,27.52
2022-08-03T08:27:05.846Z,27.58
2022-08-03T08:32:09.106Z,27.63
2022-08-03T08:37:12.061Z,27.58
2022-08-03T08:42:15.898Z,27.51
2022-08-03T08:47:22.070Z,27.32
2022-08-03T08:52:29.712Z,27.14
2022-08-03T08:57:43.138Z,27.02
2022-08-03T09:02:47.127Z,27.09
2022-08-03T09:07:50.253Z,27.21
2022-08-03T09:12:53.309Z,27.24
2022-08-03T09:17:58.421Z,27.41
2022-08-03T09:23:19.053Z,27.28
2022-08-03T09:29:01.755Z,27.07
2022-08-03T09:34:01.286Z,26.94
2022-08-03T09:39:06.909Z,27.06
2022-08-03T09:44:24.267Z,27.34
2022-08-03T09:49:28.828Z,27.53
2022-08-03T09:54:32.765Z,28.04
2022-08-03T09:59:36.020Z,28.47
2022-08-03T10:04:52.756Z,28.54
2022-08-03T10:10:30.709Z,28.47
2022-08-03T10:16:22.592Z,28.64
2022-08-03T10:20:50.272Z,28.72
2022-08-03T10:26:01.934Z,28.83
2022-08-03T10:31:07.833Z,28.84
2022-08-03T10:36:12.645Z,28.97
2022-08-03T10:41:18.322Z,28.96
2022-08-03T10:46:21.604Z,28.90
2022-08-03T10:51:25.055Z,28.62
2022-08-03T10:56:52.407Z,28.89
2022-08-03T11:02:00.876Z,29.19
2022-08-03T11:07:16.927Z,28.86
2022-08-03T11:12:30.423Z,28.65
2022-08-03T11:17:46.561Z,28.75
2022-08-03T11:23:01.140Z,28.96
2022-08-03T11:28:28.281Z,29.06
2022-08-03T11:33:31.876Z,29.17
2022-08-03T11:38:34.684Z,29.24
2022-08-03T11:43:41.944Z,29.44
2022-08-03T11:48:59.211Z,29.72
2022-08-03T11:54:04.902Z,30.21
2022-08-03T11:59:20.690Z,30.45
2022-08-03T12:04:24.738Z,30.62
2022-08-03T12:09:27.520Z,30.44
2022-08-03T12:14:48.940Z,30.07
2022-08-03T12:19:53.213Z,29.88
2022-08-03T12:24:55.908Z,29.88
2022-08-03T12:29:59.983Z,30.41
2022-08-03T12:35:05.992Z,30.72
2022-08-03T12:40:13.263Z,30.65
2022-08-03T12:45:28.162Z,30.47
2022-08-03T12:50:36.305Z,30.78
2022-08-03T12:55:40.157Z,30.96
2022-08-03T13:01:09.817Z,31.09
2022-08-03T13:06:18.299Z,31.00
2022-08-03T13:11:22.832Z,30.45
2022-08-03T13:16:45.522Z,30.08
2022-08-03T13:22:01.918Z,30.46
2022-08-03T13:28:01.811Z,31.21
2022-08-03T13:32:30.847Z,31.89
2022-08-03T13:37:33.859Z,32.23
2022-08-03T13:42:38.813Z,32.42
2022-08-03T13:47:41.785Z,32.48
2022-08-03T13:52:46.545Z,32.03
2022-08-03T13:58:04.187Z,31.77
2022-08-03T14:03:14.450Z,32.43
2022-08-03T14:08:18.437Z,32.98
2022-08-03T14:13:22.560Z,33.92
2022-08-03T14:18:28.564Z,34.77
2022-08-03T14:23:39.818Z,35.50
2022-08-03T14:28:42.549Z,36.36
2022-08-03T14:33:45.373Z,37.11
2022-08-03T14:38:48.337Z,37.85
2022-08-03T14:44:02.226Z,38.28
2022-08-03T14:50:38.229Z,38.56
2022-08-03T14:54:31.070Z,38.10
2022-08-03T14:59:56.299Z,37.39
2022-08-03T15:04:56.883Z,36.39
2022-08-03T15:09:59.770Z,37.19
2022-08-03T15:15:06.186Z,38.17
2022-08-03T15:20:27.819Z,39.17
2022-08-03T15:26:28.122Z,40.10
2022-08-03T15:30:56.562Z,40.43
2022-08-03T15:36:00.470Z,40.84
2022-08-03T15:41:03.541Z,41.01
2022-08-03T15:46:28.898Z,41.06
2022-08-03T15:51:30.072Z,41.77
2022-08-03T15:56:32.785Z,42.13
2022-08-03T16:01:35.803Z,42.78
2022-08-03T16:06:38.698Z,43.25
2022-08-03T16:11:41.406Z,43.23
2022-08-03T16:16:44.160Z,43.42
2022-08-03T16:21:48.734Z,43.91
2022-08-03T16:26:52.753Z,44.15
2022-08-03T16:31:55.545Z,43.03
2022-08-03T16:36:58.316Z,42.00
2022-08-03T16:42:01.798Z,41.80
2022-08-03T16:47:04.883Z,41.71
2022-08-03T16:52:07.828Z,41.90
2022-08-03T16:57:10.592Z,42.42
2022-08-03T17:02:26.199Z,42.63
2022-08-03T17:07:29.779Z,42.70
2022-08-03T17:12:33.288Z,42.80
2022-08-03T17:17:37.568Z,42.89
2022-08-03T17:22:59.070Z,43.10
2022-08-03T17:28:50.814Z,43.14
2022-08-03T17:33:26.334Z,42.52
2022-08-03T17:38:40.394Z,41.76
2022-08-03T17:44:15.946Z,40.70
2022-08-03T17:49:24.513Z,38.96
2022-08-03T17:55:57.181Z,36.76
2022-08-03T18:00:36.346Z,34.75
2022-08-03T18:06:11.859Z,33.09
2022-08-03T18:11:16.319Z,31.65
2022-08-03T18:16:33.385Z,30.42
2022-08-03T18:22:04.031Z,29.27
2022-08-03T18:27:03.172Z,28.08
2022-08-03T18:32:13.263Z,27.09
2022-08-03T18:37:23.083Z,26.22
2022-08-03T18:42:27.784Z,25.46
2022-08-03T18:47:55.444Z,24.73
2022-08-03T18:54:02.274Z,24.01
2022-08-03T18:59:10.321Z,23.32
2022-08-03T19:04:15.366Z,22.77
2022-08-03T19:09:28.458Z,22.33
2022-08-03T19:14:39.241Z,21.87
2022-08-03T19:19:45.560Z,21.53
2022-08-03T19:24:52.918Z,21.19
2022-08-03T19:30:00.656Z,20.87
2022-08-03T19:40:32.931Z,20.28
2022-08-03T19:46:05.013Z,20.01
2022-08-03T19:51:12.093Z,19.74
2022-08-03T19:56:18.947Z,19.50
2022-08-03T20:01:22.940Z,19.28
2022-08-03T20:06:25.653Z,19.08
2022-08-03T20:11:29.044Z,18.89
2022-08-03T20:16:31.943Z,18.72
2022-08-03T20:21:35.476Z,18.60
2022-08-03T20:26:44.569Z,18.52
2022-08-03T20:31:47.793Z,18.39
2022-08-03T20:36:50.576Z,18.25
2022-08-03T20:41:53.373Z,18.07
2022-08-03T20:47:00.785Z,17.88
2022-08-03T20:52:04.688Z,17.72
2022-08-03T20:57:21.290Z,17.57
2022-08-03T21:02:29.782Z,17.49
2022-08-03T21:08:06.299Z,17.45
2022-08-03T21:13:02.505Z,20.57
2022-08-03T21:13:39.500Z,17.37
2022-08-03T21:18:49.556Z,17.30
2022-08-03T21:23:54.308Z,17.20
2022-08-03T21:28:57.169Z,17.10
2022-08-03T21:34:02.542Z,17.00
2022-08-03T21:39:08.553Z,16.86
2022-08-03T21:44:11.417Z,16.70
2022-08-03T21:50:04.979Z,16.53
2022-08-03T21:54:41.154Z,16.37
2022-08-03T21:59:53.097Z,16.20
2022-08-03T22:04:57.329Z,16.08
2022-08-03T22:10:02.547Z,15.99
2022-08-03T22:15:09.048Z,15.91
2022-08-03T22:20:16.852Z,15.85
2022-08-03T22:25:23.664Z,15.78
2022-08-03T22:30:27.304Z,15.76
2022-08-03T22:35:32.167Z,15.78
2022-08-03T22:40:51.049Z,15.77
2022-08-03T22:46:10.628Z,15.70
2022-08-03T22:51:15.979Z,15.60
2022-08-03T22:56:18.929Z,15.54
2022-08-03T23:01:22.834Z,15.47
2022-08-03T23:06:27.009Z,15.43
2022-08-03T23:11:29.794Z,15.37
2022-08-03T23:16:38.160Z,15.33
2022-08-03T23:21:52.838Z,15.36
2022-08-03T23:27:04.410Z,15.47
2022-08-03T23:32:08.494Z,15.52
2022-08-03T23:37:13.710Z,15.53
2022-08-03T23:42:21.644Z,15.55
2022-08-03T23:47:25.161Z,15.55
2022-08-03T23:53:08.673Z,15.44
2022-08-03T23:58:34.521Z,15.29
